Redgranite, Wisconsin
Current Conditions -  °F | °C
As of 1:56 AM on Tuesday 27 Jan 2015 (Local Time) from KY50 Reporting Station
Overcast Overcast  
Wind Chill: 24°   Ceiling: 600
Heat Index: 24°   Visibility: 9mi
Dew Point: 23°   Wind: 0mph
Humidity: 96%   Direction: NA
Pressure: 29.99"   Gusts: NA
Location:  44.04°N, 89.1°W
Report Text: KY50 270756Z AUTO 00000KT 9SM BKN006 OVC014 M04/M05 A2999 RMK AO2 TSNO T10441050 BKN V SCT SLP167
Loading
Personal Weather Stations






























Interactive Weather Map New forecast layout! Learn more

10-Day Weather Forecast

Advertisements
Track Severe Weather on mobile